BBC Congo — V2EL3 — position and weather

sailwx.info

Track history (hours):
 
Tides and Currents Weather Stations Pressure Air Temp Water Temp Dewpoint Dewpoint Depression Visibility Wind Speed Wind Dir Waves Ship Positions

BBC Congo

Last reported at 2017-Jul-28 18:02 UTC. Time now 2017-Aug-18 17:56 UTC.
Position N 31°15' E 032°19'.
Warning: this ship's position is 20 days out of date.

Length 144 m; draft 7.9 m.

Type: Cargo ship. MMSI: 305466000.

Date/timePositionNaut miles runAvg speedWind from/ knotsBaromVisibWave heightAir tempDewpointWater temp
2017-Jul-28 18:02N 31°15' E 032°19'0 0.1
2017-Jul-28 17:59N 31°15' E 032°19'0 0.0
2017-Jul-28 17:30N 31°15' E 032°19'7 3.7
2017-Jul-28 15:36N 31°22' E 032°18'  
2017-Jul-25 22:02N 36°21' E 014°54'115.3
2017-Jul-25 21:56N 36°22' E 014°53'614.8
2017-Jul-25 21:30N 36°24' E 014°45'714.9
2017-Jul-25 21:00N 36°26' E 014°36'714.8
2017-Jul-25 20:30N 36°28' E 014°28'714.7
2017-Jul-25 20:00N 36°30' E 014°19'814.6
2017-Jul-25 19:29N 36°32' E 014°10'714.5
2017-Jul-25 19:00N 36°35' E 014°02'714.5
2017-Jul-25 18:30N 36°37' E 013°53'814.4
2017-Jul-25 17:57N 36°40' E 013°44'1014.4
2017-Jul-25 17:16N 36°43' E 013°32'414.4
2017-Jul-25 17:00N 36°44' E 013°28'1614.5
2017-Jul-25 15:55N 36°50' E 013°09'2914.0
2017-Jul-25 13:49N 36°59' E 012°34'814.1
2017-Jul-25 13:17N 37°01' E 012°25'3314.2
2017-Jul-25 10:56N 37°11' E 011°46'614.4
2017-Jul-25 10:30N 37°13' E 011°38'1214.4
2017-Jul-25 09:41N 37°17' E 011°24'414.6
2017-Jul-25 09:26N 37°18' E 011°20'51713.9
2017-Jul-23 20:14N 36°43' E 000°34'314.3
2017-Jul-23 19:59N 36°43' E 000°30'2714.0
2017-Jul-23 18:05N 36°39' W 000°03'213.7
2017-Jul-23 17:58N 36°38' W 000°05'713.7
2017-Jul-23 17:28N 36°37' W 000°13'713.8
2017-Jul-23 17:00N 36°36' W 000°21'2613.7
2017-Jul-23 15:05N 36°32' W 000°54'6814.1
2017-Jul-23 10:15N 36°21' W 002°17'415.1
2017-Jul-23 10:01N 36°21' W 002°22'25514.2
2017-Jul-22 16:04N 36°11' W 007°38'114.6
2017-Jul-22 16:00N 36°12' W 007°39'714.5
2017-Jul-22 15:30N 36°14' W 007°48'814.6
2017-Jul-22 14:56N 36°16' W 007°58'1714.6
2017-Jul-22 13:45N 36°21' W 008°19'1414.4
2017-Jul-22 12:45N 36°25' W 008°36'1414.5
2017-Jul-22 11:48N 36°28' W 008°52'414.3
2017-Jul-22 11:30N 36°30' W 008°57'8913.2
2017-Jul-22 04:46N 37°48' W 009°51'514.4
2017-Jul-22 04:24N 37°53' W 009°52'614.6
2017-Jul-22 04:01N 37°59' W 009°54'714.3
2017-Jul-22 03:30N 38°05' W 009°57'714.4
2017-Jul-22 03:00N 38°12' W 009°59'714.5
2017-Jul-22 02:30N 38°20' W 010°00'714.6
2017-Jul-22 02:00N 38°27' W 010°03'814.5
2017-Jul-22 01:29N 38°34' W 010°05'714.1
2017-Jul-22 01:00N 38°41' W 010°06'713.9
2017-Jul-22 00:30N 38°48' W 010°08'714.3
2017-Jul-22 00:00N 38°55' W 010°08'713.9
2017-Jul-21 23:30N 39°02' W 010°08'714.0
2017-Jul-21 23:00N 39°09' W 010°07'714.4
2017-Jul-21 22:30N 39°16' W 010°07'815.0
2017-Jul-21 21:59N 39°24' W 010°07'66413.3
2017-Jul-19 20:15N 49°35' W 004°05'714.4
2017-Jul-19 19:44N 49°38' W 003°55'314.5
2017-Jul-19 19:31N 49°40' W 003°51'714.3
2017-Jul-19 19:01N 49°44' W 003°41'714.2
2017-Jul-19 18:31N 49°47' W 003°31'713.9
2017-Jul-19 18:00N 49°51' W 003°22'713.5
2017-Jul-19 17:30N 49°54' W 003°13'613.0
2017-Jul-19 17:00N 49°57' W 003°04'612.3
2017-Jul-19 16:31N 49°59' W 002°55'612.1
2017-Jul-19 16:00N 50°01' W 002°46'711.6
2017-Jul-19 15:26N 50°03' W 002°36'1311.3
2017-Jul-19 14:17N 50°06' W 002°17'311.6
2017-Jul-19 14:00N 50°07' W 002°12'611.7
2017-Jul-19 13:29N 50°09' W 002°03'612.0
2017-Jul-19 13:00N 50°11' W 001°54'612.6
2017-Jul-19 12:31N 50°12' W 001°45'713.5
2017-Jul-19 12:00N 50°14' W 001°35'714.3
2017-Jul-19 11:30N 50°16' W 001°24'3715.5
2017-Jul-19 09:05N 50°26' W 000°27'115.1
2017-Jul-19 09:01N 50°26' W 000°26'714.2
2017-Jul-19 08:29N 50°28' W 000°14'713.6
2017-Jul-19 08:00N 50°30' W 000°04'713.3
2017-Jul-19 07:30N 50°32' E 000°06'712.9
2017-Jul-19 07:00N 50°34' E 000°15'612.6
2017-Jul-19 06:30N 50°36' E 000°25'612.3
2017-Jul-19 06:00N 50°38' E 000°34'612.4
2017-Jul-19 05:30N 50°39' E 000°43'612.5
2017-Jul-19 05:00N 50°43' E 000°51'612.6
2017-Jul-19 04:30N 50°47' E 000°59'713.1
2017-Jul-19 04:00N 50°51' E 001°08'713.8
2017-Jul-19 03:30N 50°55' E 001°17'815.0
2017-Jul-19 03:00N 51°00' E 001°25'816.3
2017-Jul-19 02:31N 51°06' E 001°34'815.7
2017-Jul-19 02:00N 51°11' E 001°43'714.9
2017-Jul-19 01:30N 51°17' E 001°50'714.2
2017-Jul-19 01:00N 51°23' E 001°56'713.6
2017-Jul-19 00:31N 51°29' E 002°02'713.3
2017-Jul-19 00:00N 51°34' E 002°09'713.1
2017-Jul-18 23:30N 51°39' E 002°16'612.7
2017-Jul-18 23:01N 51°44' E 002°22'612.4
2017-Jul-18 22:31N 51°49' E 002°28'612.3
2017-Jul-18 22:00N 51°53' E 002°35'612.2
2017-Jul-18 21:30N 51°58' E 002°41'612.2
2017-Jul-18 21:01N 52°03' E 002°48'612.2
2017-Jul-18 20:30N 52°07' E 002°54'612.4
2017-Jul-18 20:00N 52°12' E 003°01'712.7
2017-Jul-18 19:29N 52°18' E 003°07'713.3
2017-Jul-18 18:59N 52°23' E 003°14'613.7
2017-Jul-18 18:30N 52°28' E 003°20'  
Track history (hours):
 
Tides and Currents Weather Stations Pressure Air Temp Water Temp Dewpoint Dewpoint Depression Visibility Wind Speed Wind Dir Waves Ship Positions

BBC Congo

Last reported at 2017-Jul-28 18:02 UTC. Time now 2017-Aug-18 17:56 UTC.
Position N 31°15' E 032°19'.
Warning: this ship's position is 20 days out of date.

Length 144 m; draft 7.9 m.

Type: Cargo ship. MMSI: 305466000.

Date/timePositionNaut miles runAvg speedWind from/ knotsBaromVisibWave heightAir tempDewpointWater temp
2017-Jul-28 18:02N 31°15' E 032°19'0 0.1
2017-Jul-28 17:59N 31°15' E 032°19'0 0.0
2017-Jul-28 17:30N 31°15' E 032°19'7 3.7
2017-Jul-28 15:36N 31°22' E 032°18'  
2017-Jul-25 22:02N 36°21' E 014°54'115.3
2017-Jul-25 21:56N 36°22' E 014°53'614.8
2017-Jul-25 21:30N 36°24' E 014°45'714.9
2017-Jul-25 21:00N 36°26' E 014°36'714.8
2017-Jul-25 20:30N 36°28' E 014°28'714.7
2017-Jul-25 20:00N 36°30' E 014°19'814.6
2017-Jul-25 19:29N 36°32' E 014°10'714.5
2017-Jul-25 19:00N 36°35' E 014°02'714.5
2017-Jul-25 18:30N 36°37' E 013°53'814.4
2017-Jul-25 17:57N 36°40' E 013°44'1014.4
2017-Jul-25 17:16N 36°43' E 013°32'414.4
2017-Jul-25 17:00N 36°44' E 013°28'1614.5
2017-Jul-25 15:55N 36°50' E 013°09'2914.0
2017-Jul-25 13:49N 36°59' E 012°34'814.1
2017-Jul-25 13:17N 37°01' E 012°25'3314.2
2017-Jul-25 10:56N 37°11' E 011°46'614.4
2017-Jul-25 10:30N 37°13' E 011°38'1214.4
2017-Jul-25 09:41N 37°17' E 011°24'414.6
2017-Jul-25 09:26N 37°18' E 011°20'51713.9
2017-Jul-23 20:14N 36°43' E 000°34'314.3
2017-Jul-23 19:59N 36°43' E 000°30'2714.0
2017-Jul-23 18:05N 36°39' W 000°03'213.7
2017-Jul-23 17:58N 36°38' W 000°05'713.7
2017-Jul-23 17:28N 36°37' W 000°13'713.8
2017-Jul-23 17:00N 36°36' W 000°21'2613.7
2017-Jul-23 15:05N 36°32' W 000°54'6814.1
2017-Jul-23 10:15N 36°21' W 002°17'415.1
2017-Jul-23 10:01N 36°21' W 002°22'25514.2
2017-Jul-22 16:04N 36°11' W 007°38'114.6
2017-Jul-22 16:00N 36°12' W 007°39'714.5
2017-Jul-22 15:30N 36°14' W 007°48'814.6
2017-Jul-22 14:56N 36°16' W 007°58'1714.6
2017-Jul-22 13:45N 36°21' W 008°19'1414.4
2017-Jul-22 12:45N 36°25' W 008°36'1414.5
2017-Jul-22 11:48N 36°28' W 008°52'414.3
2017-Jul-22 11:30N 36°30' W 008°57'8913.2
2017-Jul-22 04:46N 37°48' W 009°51'514.4
2017-Jul-22 04:24N 37°53' W 009°52'614.6
2017-Jul-22 04:01N 37°59' W 009°54'714.3
2017-Jul-22 03:30N 38°05' W 009°57'714.4
2017-Jul-22 03:00N 38°12' W 009°59'714.5
2017-Jul-22 02:30N 38°20' W 010°00'714.6
2017-Jul-22 02:00N 38°27' W 010°03'814.5
2017-Jul-22 01:29N 38°34' W 010°05'714.1
2017-Jul-22 01:00N 38°41' W 010°06'713.9
2017-Jul-22 00:30N 38°48' W 010°08'714.3
2017-Jul-22 00:00N 38°55' W 010°08'713.9
2017-Jul-21 23:30N 39°02' W 010°08'714.0
2017-Jul-21 23:00N 39°09' W 010°07'714.4
2017-Jul-21 22:30N 39°16' W 010°07'815.0
2017-Jul-21 21:59N 39°24' W 010°07'66413.3
2017-Jul-19 20:15N 49°35' W 004°05'714.4
2017-Jul-19 19:44N 49°38' W 003°55'314.5
2017-Jul-19 19:31N 49°40' W 003°51'714.3
2017-Jul-19 19:01N 49°44' W 003°41'714.2
2017-Jul-19 18:31N 49°47' W 003°31'713.9
2017-Jul-19 18:00N 49°51' W 003°22'713.5
2017-Jul-19 17:30N 49°54' W 003°13'613.0
2017-Jul-19 17:00N 49°57' W 003°04'612.3
2017-Jul-19 16:31N 49°59' W 002°55'612.1
2017-Jul-19 16:00N 50°01' W 002°46'711.6
2017-Jul-19 15:26N 50°03' W 002°36'1311.3
2017-Jul-19 14:17N 50°06' W 002°17'311.6
2017-Jul-19 14:00N 50°07' W 002°12'611.7
2017-Jul-19 13:29N 50°09' W 002°03'612.0
2017-Jul-19 13:00N 50°11' W 001°54'612.6
2017-Jul-19 12:31N 50°12' W 001°45'713.5
2017-Jul-19 12:00N 50°14' W 001°35'714.3
2017-Jul-19 11:30N 50°16' W 001°24'3715.5
2017-Jul-19 09:05N 50°26' W 000°27'115.1
2017-Jul-19 09:01N 50°26' W 000°26'714.2
2017-Jul-19 08:29N 50°28' W 000°14'713.6
2017-Jul-19 08:00N 50°30' W 000°04'713.3
2017-Jul-19 07:30N 50°32' E 000°06'712.9
2017-Jul-19 07:00N 50°34' E 000°15'612.6
2017-Jul-19 06:30N 50°36' E 000°25'612.3
2017-Jul-19 06:00N 50°38' E 000°34'612.4
2017-Jul-19 05:30N 50°39' E 000°43'612.5
2017-Jul-19 05:00N 50°43' E 000°51'612.6
2017-Jul-19 04:30N 50°47' E 000°59'713.1
2017-Jul-19 04:00N 50°51' E 001°08'713.8
2017-Jul-19 03:30N 50°55' E 001°17'815.0
2017-Jul-19 03:00N 51°00' E 001°25'816.3
2017-Jul-19 02:31N 51°06' E 001°34'815.7
2017-Jul-19 02:00N 51°11' E 001°43'714.9
2017-Jul-19 01:30N 51°17' E 001°50'714.2
2017-Jul-19 01:00N 51°23' E 001°56'713.6
2017-Jul-19 00:31N 51°29' E 002°02'713.3
2017-Jul-19 00:00N 51°34' E 002°09'713.1
2017-Jul-18 23:30N 51°39' E 002°16'612.7
2017-Jul-18 23:01N 51°44' E 002°22'612.4
2017-Jul-18 22:31N 51°49' E 002°28'612.3
2017-Jul-18 22:00N 51°53' E 002°35'612.2
2017-Jul-18 21:30N 51°58' E 002°41'612.2
2017-Jul-18 21:01N 52°03' E 002°48'612.2
2017-Jul-18 20:30N 52°07' E 002°54'612.4
2017-Jul-18 20:00N 52°12' E 003°01'712.7
2017-Jul-18 19:29N 52°18' E 003°07'713.3
2017-Jul-18 18:59N 52°23' E 003°14'613.7
2017-Jul-18 18:30N 52°28' E 003°20'  

Dump ship's entire track history